createdAt,value
2018-02-21T00:01:09.712Z,15.57
2018-02-21T00:03:37.507Z,15.87
2018-02-21T00:06:05.272Z,14.30
2018-02-21T00:08:33.088Z,14.13
2018-02-21T00:11:00.834Z,14.20
2018-02-21T00:13:28.622Z,14.60
2018-02-21T00:15:56.405Z,14.20
2018-02-21T00:18:24.294Z,14.70
2018-02-21T00:20:52.073Z,15.90
2018-02-21T00:23:19.861Z,14.23
2018-02-21T00:25:47.590Z,13.90
2018-02-21T00:28:15.385Z,13.80
2018-02-21T00:30:43.201Z,14.10
2018-02-21T00:33:10.979Z,15.40
2018-02-21T00:35:38.793Z,14.20
2018-02-21T00:38:06.597Z,13.93
2018-02-21T00:40:34.524Z,14.50
2018-02-21T00:43:02.337Z,14.23
2018-02-21T00:45:30.086Z,14.50
2018-02-21T00:47:57.916Z,14.57
2018-02-21T00:50:25.679Z,14.60
2018-02-21T00:52:53.509Z,14.30
2018-02-21T00:55:21.266Z,15.50
2018-02-21T00:57:49.114Z,13.73
2018-02-21T01:00:16.879Z,14.23
2018-02-21T01:02:44.682Z,14.50
2018-02-21T01:05:12.427Z,14.37
2018-02-21T01:07:40.231Z,14.63
2018-02-21T01:10:07.999Z,14.23
2018-02-21T01:12:35.822Z,14.15
2018-02-21T01:15:03.589Z,15.07
2018-02-21T01:17:31.459Z,14.40
2018-02-21T01:19:59.217Z,15.10
2018-02-21T01:22:27.079Z,14.10
2018-02-21T01:24:55.012Z,15.03
2018-02-21T01:27:22.765Z,14.77
2018-02-21T01:29:50.599Z,14.87
2018-02-21T01:32:18.351Z,14.20
2018-02-21T01:34:46.170Z,14.80
2018-02-21T01:37:13.941Z,14.60
2018-02-21T01:39:41.756Z,14.50
2018-02-21T01:42:09.555Z,14.13
2018-02-21T01:44:37.441Z,14.97
2018-02-21T01:47:05.262Z,15.00
2018-02-21T01:49:33.108Z,15.03
2018-02-21T01:52:00.873Z,14.45
2018-02-21T01:54:28.742Z,14.77
2018-02-21T01:56:56.505Z,12.73
2018-02-21T01:59:24.318Z,14.65
2018-02-21T02:01:52.070Z,14.50
2018-02-21T02:04:19.862Z,12.98
2018-02-21T02:06:47.627Z,13.82
2018-02-21T02:09:15.448Z,14.20
2018-02-21T02:11:43.228Z,14.95
2018-02-21T02:14:11.041Z,15.35
2018-02-21T02:16:38.806Z,13.62
2018-02-21T02:19:06.629Z,14.38
2018-02-21T02:21:34.417Z,13.82
2018-02-21T02:24:02.269Z,15.82
2018-02-21T02:26:30.098Z,15.27
2018-02-21T02:28:57.924Z,14.35
2018-02-21T02:31:25.797Z,15.35
2018-02-21T02:33:53.608Z,14.87
2018-02-21T02:36:21.436Z,14.63
2018-02-21T02:39:00.924Z,13.98
2018-02-21T02:41:28.710Z,13.73
2018-02-21T02:43:56.609Z,13.48
2018-02-21T02:46:24.344Z,15.20
2018-02-21T02:48:52.216Z,15.10
2018-02-21T02:51:20.024Z,15.55
2018-02-21T02:53:47.936Z,16.23
2018-02-21T02:56:15.714Z,15.52
2018-02-21T02:58:43.535Z,16.77
2018-02-21T03:01:11.325Z,16.05
2018-02-21T03:03:39.133Z,15.23
2018-02-21T03:06:06.956Z,15.18
2018-02-21T03:08:34.827Z,15.10
2018-02-21T03:11:02.614Z,14.27
2018-02-21T03:13:30.496Z,13.85
2018-02-21T03:15:58.295Z,14.27
2018-02-21T03:18:26.049Z,15.63
2018-02-21T03:20:53.912Z,14.15
2018-02-21T03:23:21.727Z,14.73
2018-02-21T03:25:49.632Z,15.10
2018-02-21T03:28:17.452Z,15.20
2018-02-21T03:30:45.366Z,13.35
2018-02-21T03:33:13.186Z,14.38
2018-02-21T03:35:41.072Z,14.05
2018-02-21T03:38:08.894Z,14.40
2018-02-21T03:40:36.667Z,14.32
2018-02-21T03:43:04.478Z,13.70
2018-02-21T03:45:32.331Z,14.60
2018-02-21T03:48:00.116Z,15.60
2018-02-21T03:50:27.926Z,13.98
2018-02-21T03:52:55.725Z,15.10
2018-02-21T03:55:23.537Z,15.23
2018-02-21T03:57:51.313Z,15.02
2018-02-21T04:00:19.237Z,13.60
2018-02-21T04:02:46.990Z,15.20
2018-02-21T04:05:14.799Z,16.48
2018-02-21T04:07:42.600Z,14.93
2018-02-21T04:10:10.433Z,15.18
2018-02-21T04:12:38.249Z,16.40
2018-02-21T04:15:06.209Z,14.85
2018-02-21T04:17:34.023Z,14.02
2018-02-21T04:20:01.869Z,13.90
2018-02-21T04:22:29.694Z,14.30
2018-02-21T04:24:57.540Z,14.00
2018-02-21T04:27:25.355Z,14.63
2018-02-21T04:29:53.227Z,13.18
2018-02-21T04:32:21.082Z,16.52
2018-02-21T04:34:49.027Z,15.98
2018-02-21T04:37:16.841Z,15.57
2018-02-21T04:39:44.683Z,15.02
2018-02-21T04:42:12.531Z,14.90
2018-02-21T04:44:40.388Z,15.02
2018-02-21T04:47:08.195Z,14.50
2018-02-21T04:49:36.064Z,14.13
2018-02-21T04:52:03.852Z,15.47
2018-02-21T04:57:42.738Z,15.20
2018-02-21T05:00:37.578Z,15.30
2018-02-21T05:03:05.664Z,15.60
2018-02-21T05:05:33.725Z,14.80
2018-02-21T05:08:01.642Z,15.10
2018-02-21T05:10:29.607Z,14.70
2018-02-21T05:12:57.831Z,16.70
2018-02-21T05:15:25.772Z,16.35
2018-02-21T05:17:53.764Z,16.17
2018-02-21T05:20:21.676Z,16.20
2018-02-21T05:22:49.545Z,14.87
2018-02-21T05:25:17.763Z,15.17
2018-02-21T05:27:46.115Z,15.60
2018-02-21T05:30:14.422Z,14.98
2018-02-21T05:32:42.343Z,16.00
2018-02-21T05:35:10.337Z,14.65
2018-02-21T05:37:39.237Z,13.35
2018-02-21T05:40:07.127Z,14.82
2018-02-21T05:42:35.032Z,14.57
2018-02-21T05:45:02.900Z,15.18
2018-02-21T05:47:30.777Z,15.95
2018-02-21T05:49:58.619Z,15.50
2018-02-21T05:52:26.477Z,12.88
2018-02-21T05:54:54.328Z,14.30
2018-02-21T05:57:22.188Z,14.38
2018-02-21T05:59:49.972Z,20.25
2018-02-21T06:02:17.868Z,16.02
2018-02-21T06:04:45.658Z,15.77
2018-02-21T06:07:13.504Z,17.95
2018-02-21T06:09:41.311Z,16.30
2018-02-21T06:12:09.137Z,14.73
2018-02-21T06:14:37.010Z,12.77
2018-02-21T06:17:04.863Z,14.00
2018-02-21T06:19:32.679Z,14.68
2018-02-21T06:22:00.511Z,41.85
2018-02-21T06:24:31.066Z,45.83
2018-02-21T06:27:01.671Z,21.17
2018-02-21T06:29:29.995Z,20.08
2018-02-21T06:31:58.242Z,23.87
2018-02-21T06:34:26.398Z,19.77
2018-02-21T06:36:54.230Z,17.20
2018-02-21T06:39:22.025Z,13.70
2018-02-21T06:41:49.866Z,14.00
2018-02-21T06:44:17.698Z,15.75
2018-02-21T06:46:45.534Z,16.00
2018-02-21T06:49:13.394Z,16.42
2018-02-21T06:51:41.574Z,17.37
2018-02-21T06:54:09.557Z,17.25
2018-02-21T06:56:37.795Z,17.80
2018-02-21T06:59:06.300Z,16.48
2018-02-21T07:01:34.512Z,16.65
2018-02-21T07:04:02.941Z,16.65
2018-02-21T07:06:30.979Z,16.92
2018-02-21T07:08:58.995Z,17.05
2018-02-21T07:11:27.125Z,17.20
2018-02-21T07:13:55.380Z,17.37
2018-02-21T07:16:23.356Z,17.08
2018-02-21T07:18:51.526Z,15.15
2018-02-21T07:21:20.160Z,15.88
2018-02-21T07:23:48.077Z,17.23
2018-02-21T07:26:16.080Z,16.00
2018-02-21T07:28:44.209Z,16.42
2018-02-21T07:31:12.316Z,16.20
2018-02-21T07:33:40.342Z,16.87
2018-02-21T07:36:08.376Z,16.48
2018-02-21T07:38:36.360Z,17.00
2018-02-21T07:41:04.478Z,15.50
2018-02-21T07:43:32.506Z,16.10
2018-02-21T07:46:00.442Z,16.33
2018-02-21T07:48:28.409Z,15.83
2018-02-21T07:50:56.365Z,15.27
2018-02-21T07:53:24.390Z,14.70
2018-02-21T07:55:52.278Z,15.40
2018-02-21T07:58:20.190Z,16.50
2018-02-21T08:00:48.005Z,15.83
2018-02-21T08:03:15.924Z,14.73
2018-02-21T08:05:43.863Z,14.97
2018-02-21T08:08:11.716Z,15.20
2018-02-21T08:10:39.634Z,14.70
2018-02-21T08:13:07.559Z,14.50
2018-02-21T08:15:35.532Z,15.37
2018-02-21T08:18:03.492Z,15.47
2018-02-21T08:20:31.407Z,14.50
2018-02-21T08:22:59.330Z,14.40
2018-02-21T08:25:27.288Z,15.27
2018-02-21T08:27:55.191Z,14.50
2018-02-21T08:30:23.866Z,15.20
2018-02-21T08:32:52.000Z,14.87
2018-02-21T08:35:19.872Z,14.47
2018-02-21T08:37:47.812Z,14.17
2018-02-21T08:40:15.736Z,15.23
2018-02-21T08:42:43.669Z,14.73
2018-02-21T08:45:11.574Z,15.73
2018-02-21T08:47:39.540Z,13.27
2018-02-21T08:50:07.436Z,13.63
2018-02-21T08:52:35.276Z,13.63
2018-02-21T08:55:03.103Z,13.90
2018-02-21T08:57:31.047Z,14.33
2018-02-21T08:59:58.999Z,14.43
2018-02-21T09:02:26.890Z,14.93
2018-02-21T09:04:54.784Z,14.63
2018-02-21T09:07:22.734Z,13.63
2018-02-21T09:09:50.610Z,15.03
2018-02-21T09:12:18.634Z,15.07
2018-02-21T09:14:46.554Z,14.73
2018-02-21T09:17:14.454Z,13.80
2018-02-21T09:19:42.318Z,14.97
2018-02-21T09:22:10.253Z,13.93
2018-02-21T09:24:38.201Z,12.87
2018-02-21T09:27:06.204Z,14.50
2018-02-21T09:29:34.094Z,13.97
2018-02-21T09:32:01.960Z,14.60
2018-02-21T09:34:30.268Z,14.17
2018-02-21T09:36:58.172Z,14.87
2018-02-21T09:39:26.129Z,14.63
2018-02-21T09:41:53.970Z,14.67
2018-02-21T09:44:21.908Z,15.07
2018-02-21T09:46:49.831Z,14.60
2018-02-21T09:49:17.818Z,14.90
2018-02-21T09:51:45.747Z,14.60
2018-02-21T09:54:13.762Z,14.50
2018-02-21T09:56:41.821Z,14.03
2018-02-21T09:59:09.760Z,14.93
2018-02-21T10:01:40.073Z,14.57
2018-02-21T10:04:08.177Z,14.40
2018-02-21T10:06:36.180Z,13.30
2018-02-21T10:09:04.148Z,14.57
2018-02-21T10:11:31.972Z,14.67
2018-02-21T10:13:59.820Z,14.63
2018-02-21T10:16:27.709Z,14.20
2018-02-21T10:18:55.647Z,12.83
2018-02-21T10:21:23.549Z,14.03
2018-02-21T10:23:51.473Z,12.10
2018-02-21T10:26:19.359Z,12.77
2018-02-21T10:28:47.274Z,12.27
2018-02-21T10:31:15.148Z,12.10
2018-02-21T10:33:43.074Z,12.47
2018-02-21T10:36:10.972Z,12.53
2018-02-21T10:38:38.873Z,13.33
2018-02-21T10:41:06.773Z,13.80
2018-02-21T10:43:34.697Z,12.27
2018-02-21T10:46:02.594Z,13.17
2018-02-21T10:48:30.520Z,10.80
2018-02-21T10:50:58.390Z,11.37
2018-02-21T10:53:26.279Z,12.20
2018-02-21T10:55:54.144Z,11.20
2018-02-21T10:58:22.276Z,11.20
2018-02-21T11:00:55.605Z,10.20
2018-02-21T11:03:23.520Z,10.90
2018-02-21T11:05:51.416Z,10.20
2018-02-21T11:08:19.293Z,9.60
2018-02-21T11:10:47.141Z,8.70
2018-02-21T11:13:15.098Z,8.53
2018-02-21T11:15:42.988Z,8.27
2018-02-21T11:18:10.934Z,8.43
2018-02-21T11:20:38.896Z,8.70
2018-02-21T11:23:06.784Z,8.50
2018-02-21T11:25:34.657Z,8.30
2018-02-21T11:28:02.477Z,9.70
2018-02-21T11:30:30.420Z,9.70
2018-02-21T11:32:58.202Z,9.03
2018-02-21T11:35:26.099Z,9.10
2018-02-21T11:37:53.996Z,7.13
2018-02-21T11:40:21.925Z,9.43
2018-02-21T11:42:49.775Z,8.73
2018-02-21T11:45:17.692Z,9.23
2018-02-21T11:47:45.533Z,8.60
2018-02-21T11:50:13.414Z,10.40
2018-02-21T11:52:41.317Z,10.43
2018-02-21T11:55:09.204Z,10.47
2018-02-21T11:57:37.070Z,10.73
2018-02-21T12:00:05.024Z,9.70
2018-02-21T12:02:32.824Z,9.97
2018-02-21T12:05:00.725Z,9.80
2018-02-21T12:07:28.612Z,9.80
2018-02-21T12:09:56.495Z,10.90
2018-02-21T12:12:24.350Z,10.10
2018-02-21T12:14:52.316Z,10.40
2018-02-21T12:17:20.200Z,10.60
2018-02-21T12:19:48.092Z,8.40
2018-02-21T12:22:15.956Z,9.67
2018-02-21T12:24:43.859Z,9.40
2018-02-21T12:27:11.733Z,9.53
2018-02-21T12:29:39.664Z,10.73
2018-02-21T12:32:12.541Z,11.40
2018-02-21T12:34:40.459Z,10.27
2018-02-21T12:37:08.308Z,10.27
2018-02-21T12:39:36.776Z,9.13
2018-02-21T12:42:04.608Z,8.83
2018-02-21T12:44:32.561Z,8.50
2018-02-21T12:47:00.368Z,9.00
2018-02-21T12:49:28.275Z,9.83
2018-02-21T12:51:56.207Z,9.50
2018-02-21T12:54:24.114Z,10.50
2018-02-21T12:56:51.972Z,8.77
2018-02-21T12:59:19.873Z,8.57
2018-02-21T13:01:47.719Z,8.13
2018-02-21T13:04:15.569Z,9.00
2018-02-21T13:06:43.545Z,8.50
2018-02-21T13:09:11.477Z,8.53
2018-02-21T13:11:39.346Z,9.03
2018-02-21T13:14:07.221Z,8.40
2018-02-21T13:16:35.137Z,8.93
2018-02-21T13:19:02.955Z,9.80
2018-02-21T13:21:30.844Z,8.80
2018-02-21T13:23:58.688Z,11.30
2018-02-21T13:26:26.595Z,10.30
2018-02-21T13:28:54.409Z,11.17
2018-02-21T13:31:22.336Z,10.10
2018-02-21T13:33:50.232Z,10.03
2018-02-21T13:36:18.118Z,10.30
2018-02-21T13:38:45.937Z,10.80
2018-02-21T13:41:13.848Z,10.20
2018-02-21T13:43:41.736Z,9.47
2018-02-21T13:46:09.709Z,11.07
2018-02-21T13:48:37.573Z,10.37
2018-02-21T13:51:05.469Z,9.13
2018-02-21T13:53:33.300Z,9.83
2018-02-21T13:56:01.220Z,9.40
2018-02-21T13:58:29.100Z,8.77
2018-02-21T14:00:57.054Z,8.73
2018-02-21T14:03:24.928Z,9.70
2018-02-21T14:05:52.801Z,9.13
2018-02-21T14:08:20.663Z,9.23
2018-02-21T14:10:48.501Z,9.03
2018-02-21T14:13:16.400Z,9.47
2018-02-21T14:15:44.300Z,9.03
2018-02-21T14:18:12.216Z,9.47
2018-02-21T14:20:40.144Z,9.50
2018-02-21T14:23:08.016Z,8.47
2018-02-21T14:25:35.965Z,9.43
2018-02-21T14:28:03.829Z,9.70
2018-02-21T14:30:31.668Z,8.50
2018-02-21T14:32:59.537Z,9.60
2018-02-21T14:35:27.369Z,9.63
2018-02-21T14:37:55.320Z,9.30
2018-02-21T14:40:23.259Z,8.97
2018-02-21T14:42:51.151Z,9.13
2018-02-21T14:45:19.061Z,8.90
2018-02-21T14:47:46.936Z,8.93
2018-02-21T14:50:14.820Z,9.00
2018-02-21T14:52:42.744Z,9.50
2018-02-21T14:55:10.669Z,9.10
2018-02-21T14:57:38.470Z,9.07
2018-02-21T15:00:06.330Z,8.47
2018-02-21T15:02:34.247Z,9.57
2018-02-21T15:05:02.141Z,9.43
2018-02-21T15:07:30.043Z,9.43
2018-02-21T15:09:57.856Z,9.43
2018-02-21T15:12:25.785Z,9.33
2018-02-21T15:14:53.589Z,8.83
2018-02-21T15:17:21.508Z,9.33
2018-02-21T15:19:49.368Z,8.47
2018-02-21T15:22:17.295Z,8.87
2018-02-21T15:24:45.188Z,9.63
2018-02-21T15:27:13.072Z,9.23
2018-02-21T15:29:40.945Z,9.67
2018-02-21T15:32:08.853Z,10.17
2018-02-21T15:34:36.668Z,10.33
2018-02-21T15:37:04.587Z,10.77
2018-02-21T15:39:32.420Z,10.83
2018-02-21T15:42:00.316Z,11.20
2018-02-21T15:44:28.174Z,10.70
2018-02-21T15:46:56.161Z,10.30
2018-02-21T15:49:23.966Z,11.13
2018-02-21T15:51:51.822Z,10.60
2018-02-21T15:54:19.771Z,12.10
2018-02-21T15:56:47.659Z,10.80
2018-02-21T15:59:15.955Z,9.83
2018-02-21T16:01:43.909Z,10.50
2018-02-21T16:04:11.795Z,10.23
2018-02-21T16:06:39.678Z,9.47
2018-02-21T16:09:07.540Z,9.33
2018-02-21T16:11:35.492Z,9.60
2018-02-21T16:14:03.303Z,10.60
2018-02-21T16:16:31.137Z,9.93
2018-02-21T16:18:58.933Z,10.40
2018-02-21T16:21:26.776Z,9.50
2018-02-21T16:23:54.596Z,9.43
2018-02-21T16:26:22.428Z,10.13
2018-02-21T16:28:50.313Z,10.73
2018-02-21T16:31:18.210Z,9.50
2018-02-21T16:33:46.072Z,9.70
2018-02-21T16:36:13.921Z,9.10
2018-02-21T16:38:41.750Z,9.80
2018-02-21T16:41:09.646Z,10.67
2018-02-21T16:43:37.567Z,10.70
2018-02-21T16:46:05.347Z,9.30
2018-02-21T16:48:33.212Z,10.00
2018-02-21T16:51:01.106Z,10.90
2018-02-21T16:53:28.939Z,9.70
2018-02-21T16:55:56.743Z,10.03
2018-02-21T16:58:24.603Z,9.70
2018-02-21T17:00:52.485Z,10.27
2018-02-21T17:03:20.376Z,9.43
2018-02-21T17:05:48.188Z,10.07
2018-02-21T17:08:16.023Z,9.97
2018-02-21T17:10:43.836Z,9.40
2018-02-21T17:13:11.710Z,9.80
2018-02-21T17:15:39.540Z,10.00
2018-02-21T17:18:07.413Z,9.43
2018-02-21T17:20:35.248Z,10.10
2018-02-21T17:23:03.120Z,10.70
2018-02-21T17:25:30.966Z,9.67
2018-02-21T17:27:58.791Z,10.50
2018-02-21T17:30:26.577Z,9.20
2018-02-21T17:32:54.394Z,9.30
2018-02-21T17:35:22.171Z,10.30
2018-02-21T17:37:49.978Z,10.40
2018-02-21T17:40:17.778Z,10.83
2018-02-21T17:42:45.620Z,9.50
2018-02-21T17:45:13.395Z,8.93
2018-02-21T17:47:41.253Z,10.37
2018-02-21T17:50:09.567Z,10.13
2018-02-21T17:52:37.577Z,10.00
2018-02-21T17:55:06.006Z,10.33
2018-02-21T17:57:34.215Z,9.90
2018-02-21T18:00:02.987Z,9.90
2018-02-21T18:02:31.423Z,9.63
2018-02-21T18:04:59.827Z,9.20
2018-02-21T18:07:28.167Z,9.70
2018-02-21T18:09:56.322Z,9.93
2018-02-21T18:12:24.868Z,9.67
2018-02-21T18:14:53.242Z,9.80
2018-02-21T18:17:21.374Z,9.77
2018-02-21T18:19:49.173Z,9.00
2018-02-21T18:22:17.006Z,10.20
2018-02-21T18:24:44.766Z,9.87
2018-02-21T18:27:12.551Z,9.33
2018-02-21T18:29:40.420Z,9.50
2018-02-21T18:32:08.206Z,10.13
2018-02-21T18:34:36.077Z,10.03
2018-02-21T18:37:03.891Z,9.70
2018-02-21T18:39:31.817Z,9.57
2018-02-21T18:41:59.606Z,10.23
2018-02-21T18:44:27.480Z,10.10
2018-02-21T18:46:55.352Z,9.60
2018-02-21T18:49:23.220Z,9.80
2018-02-21T18:51:51.127Z,9.93
2018-02-21T18:54:19.100Z,9.67
2018-02-21T18:56:46.973Z,9.03
2018-02-21T18:59:14.907Z,8.93
2018-02-21T19:01:42.836Z,9.50
2018-02-21T19:04:10.804Z,9.73
2018-02-21T19:06:38.673Z,9.07
2018-02-21T19:09:06.551Z,9.33
2018-02-21T19:11:34.360Z,9.43
2018-02-21T19:14:02.296Z,9.43
2018-02-21T19:16:30.168Z,8.47
2018-02-21T19:18:58.088Z,8.70
2018-02-21T19:21:25.892Z,8.70
2018-02-21T19:23:53.804Z,9.00
2018-02-21T19:26:21.684Z,9.20
2018-02-21T19:28:49.589Z,9.37
2018-02-21T19:31:17.414Z,8.60
2018-02-21T19:33:45.590Z,10.23
2018-02-21T19:36:13.484Z,10.10
2018-02-21T19:38:41.322Z,9.80
2018-02-21T19:41:09.173Z,9.87
2018-02-21T19:43:37.113Z,9.17
2018-02-21T19:46:05.020Z,10.20
2018-02-21T19:48:32.936Z,10.57
2018-02-21T19:51:00.812Z,10.97
2018-02-21T19:53:28.799Z,9.90
2018-02-21T19:55:56.704Z,11.00
2018-02-21T19:58:24.631Z,10.17
2018-02-21T20:00:52.522Z,10.10
2018-02-21T20:03:20.397Z,10.53
2018-02-21T20:05:48.276Z,10.20
2018-02-21T20:08:16.247Z,10.07
2018-02-21T20:10:44.108Z,9.63
2018-02-21T20:13:12.007Z,9.27
2018-02-21T20:15:39.902Z,9.20
2018-02-21T20:18:07.792Z,9.73
2018-02-21T20:20:35.713Z,9.07
2018-02-21T20:23:03.581Z,8.93
2018-02-21T20:25:31.527Z,9.60
2018-02-21T20:27:59.417Z,9.43
2018-02-21T20:30:27.323Z,10.23
2018-02-21T20:32:55.142Z,9.57
2018-02-21T20:35:23.083Z,8.83
2018-02-21T20:37:50.984Z,8.03
2018-02-21T20:40:18.904Z,8.80
2018-02-21T20:42:46.685Z,8.90
2018-02-21T20:45:14.585Z,9.33
2018-02-21T20:47:42.377Z,9.40
2018-02-21T20:50:10.340Z,9.40
2018-02-21T20:52:38.255Z,9.20
2018-02-21T20:55:06.153Z,9.30
2018-02-21T20:57:34.016Z,9.23
2018-02-21T21:00:01.859Z,9.53
2018-02-21T21:02:29.656Z,8.67
2018-02-21T21:04:57.467Z,9.00
2018-02-21T21:07:25.292Z,9.13
2018-02-21T21:09:53.131Z,8.97
2018-02-21T21:12:20.951Z,9.43
2018-02-21T21:14:48.861Z,9.00
2018-02-21T21:17:16.680Z,9.37
2018-02-21T21:22:18.682Z,9.00
2018-02-21T21:24:46.552Z,9.10
2018-02-21T21:27:14.416Z,8.93
2018-02-21T21:29:42.259Z,9.20
2018-02-21T21:32:10.045Z,8.40
2018-02-21T21:34:37.901Z,9.90
2018-02-21T21:37:05.804Z,9.33
2018-02-21T21:39:33.680Z,9.17
2018-02-21T21:42:01.484Z,9.60
2018-02-21T21:44:29.401Z,10.50
2018-02-21T21:46:57.243Z,9.83
2018-02-21T21:49:25.123Z,9.33
2018-02-21T21:51:52.910Z,8.97
2018-02-21T21:54:20.703Z,8.73
2018-02-21T21:56:48.657Z,10.47
2018-02-21T21:59:16.499Z,10.07
2018-02-21T22:01:44.347Z,9.30
2018-02-21T22:04:12.208Z,8.27
2018-02-21T22:06:40.050Z,10.03
2018-02-21T22:09:07.921Z,10.87
2018-02-21T22:11:35.780Z,10.37
2018-02-21T22:14:03.601Z,10.03
2018-02-21T22:16:31.440Z,9.73
2018-02-21T22:18:59.382Z,9.13
2018-02-21T22:21:27.259Z,9.20
2018-02-21T22:23:55.062Z,10.05
2018-02-21T22:26:22.873Z,8.70
2018-02-21T22:28:50.661Z,10.43
2018-02-21T22:31:18.512Z,10.97
2018-02-21T22:33:46.301Z,9.20
2018-02-21T22:36:14.139Z,9.93
2018-02-21T22:38:41.939Z,10.37
2018-02-21T22:41:09.812Z,9.80
2018-02-21T22:43:37.619Z,10.27
2018-02-21T22:46:05.482Z,9.23
2018-02-21T22:48:33.283Z,8.40
2018-02-21T22:51:01.094Z,8.93
2018-02-21T22:53:28.933Z,9.70
2018-02-21T22:55:56.776Z,8.97
2018-02-21T22:58:24.568Z,10.50
2018-02-21T23:00:52.498Z,45.97
2018-02-21T23:03:20.451Z,35.70
2018-02-21T23:05:48.311Z,74.80
2018-02-21T23:08:16.159Z,19.50
2018-02-21T23:10:44.012Z,10.57
2018-02-21T23:13:11.936Z,12.73
2018-02-21T23:15:39.748Z,11.40
2018-02-21T23:18:07.567Z,10.43
2018-02-21T23:20:35.450Z,10.07
2018-02-21T23:23:03.244Z,11.00
2018-02-21T23:25:31.160Z,10.70
2018-02-21T23:27:58.906Z,9.70
2018-02-21T23:30:26.715Z,10.00
2018-02-21T23:32:54.537Z,10.90
2018-02-21T23:35:22.356Z,10.07
2018-02-21T23:37:50.131Z,10.05
2018-02-21T23:40:17.990Z,9.60
2018-02-21T23:42:45.783Z,10.57
2018-02-21T23:45:13.628Z,11.53
2018-02-21T23:47:41.451Z,10.60
2018-02-21T23:50:09.254Z,10.00
2018-02-21T23:52:37.204Z,12.05
2018-02-21T23:55:04.989Z,10.90
2018-02-21T23:57:32.819Z,10.57
